08:40
Airports
History
Links
Donate
Help keep this website running!
PayPal
Bitcoin
Information on this page is community maintained and may be outdated or inaccurate and is intended for reference only or PC simulator navigating.
Always use approved charts for navigating.
SDAM
Amarais
Amarais (SDAM)
Campinas, São Paulo, Brazil (13069)
(C)
Lat/Lng:22° 51' 33.26" S / 47° 6' 29.46" W
-22.85924 / -47.108183
Elevation:2008'ft 612mMSL
ID / ICAO:SDAM
Runways:1
Longest:(16-34) 1,207.0m 3,960ft Asphalt
Controlled:Yes
Distance To
Airport ID:
Airport Radio Frequencies
Tower: 125.77
Nearby WeatherUpdated 07-24-17 08:00 GMT
Nearby weather at SBKP, Sao Paulo Viracopos located 10.4 nautical miles from SDAM
Altimeter: 30.30
Visibility: 6.2 statute miles
Wind: 6 knots (110°)
Temp: 14°c 57°f
Humidity: 67.1%

METAR: SBKP 240800Z 11006KT CAVOK 14/08 Q1026

(Powered by phpweather)
Runway 16 / 34
Dimensions:1207 x 29m 3960' x 95'ft
Surface:Asphalt
Runway 16 [A]Runway 34 [B]
Heading:137°TH 317°TH
Lat:
Lng:
22° 51' 18.71"S
47° 6' 43.82"W
22° 51' 47.82"S
47° 6' 15.1"W
User Notes and Comments
Google Map
Nearby Airports
(C) Sao Paulo Viracopos 10.4 NM
SBKP (WX) S 189°
(U) AMERICANA 12.5 NM
SDAI NW 304°
4 Rodrigues 15.4 NM
SIQK WNW 290°
(U) Tres Marias 23.0 NM
SDWL S 174°
(C) Jundiai 24.6 NM
SBJD SSE 154°
4 Limeira 26.2 NM
SDYM NW 312°
4 Fazenda Herdade 30.4 NM
SDHE NNE 33°
VFR Chart
Flight Planning at SkyVector.com